Tridens — PBVO — position and weather

sailwx.info

Track history (hours):
 
Tides and Currents Weather Stations Pressure Air Temp Water Temp Dewpoint Dewpoint Depression Visibility Wind Speed Wind Dir Waves Ship Positions

Oceanographic research ship Tridens (Netherlands)

Detailed information on ship capabilities available from University of Delaware's Ocean Information Center.

Last reported at 2019-Jan-22 21:43 UTC. Time now 2019-Jan-24 11:38 UTC.
Position N 53°57' E 007°48'.

Length 74 m; beam 14 m.

Type: Other ship. MMSI: 244033000.

Date/timePositionNaut miles runAvg speedWind from/ knotsBaromVisibWave heightAir tempDewpointWater temp
2019-Jan-22 21:43N 53°57' E 007°48'92 4.8
2019-Jan-22 02:43N 53°38' E 005°16'3 5.6
2019-Jan-22 02:14N 53°39' E 005°11'312.6
2019-Jan-22 02:00N 53°39' E 005°06'713.5
2019-Jan-22 01:30N 53°38' E 004°55'64 8.7
2019-Jan-21 18:11N 52°39' E 004°12'1 2.9
2019-Jan-21 17:59N 52°40' E 004°13'1 2.2
2019-Jan-21 17:29N 52°41' E 004°13'4 7.9
2019-Jan-21 17:00N 52°41' E 004°19'2 4.0
2019-Jan-21 16:29N 52°39' E 004°22'3 4.7
2019-Jan-21 15:57N 52°37' E 004°20'512.3
2019-Jan-21 15:30N 52°32' E 004°22'816.6
2019-Jan-21 15:00N 52°24' E 004°20'816.8
2019-Jan-21 14:30N 52°15' E 004°18'816.4
2019-Jan-21 14:00N 52°07' E 004°15'1 1.6
2019-Jan-21 13:30N 52°06' E 004°15'5 9.7
2019-Jan-21 13:00N 52°11' E 004°18'2 3.4
2019-Jan-21 12:30N 52°12' E 004°19'1 1.3
2019-Jan-21 12:00N 52°13' E 004°20'2 3.5
2019-Jan-21 11:30N 52°11' E 004°18'2 3.9
2019-Jan-21 11:00N 52°10' E 004°16'3 5.3
2019-Jan-21 10:30N 52°07' E 004°15'2 2.7
2019-Jan-21 09:56N 52°06' E 004°16'0 0.0
2019-Jan-21 09:26N 52°06' E 004°16'0 0.0
2019-Jan-21 08:56N 52°06' E 004°16'0 0.0
2019-Jan-21 08:26N 52°06' E 004°16'0 0.0
2019-Jan-21 07:56N 52°06' E 004°16'0 0.0
2019-Jan-21 07:26N 52°06' E 004°16'0 0.0
2019-Jan-21 06:56N 52°06' E 004°16'0 0.0
2019-Jan-21 06:26N 52°06' E 004°16'0 0.0
2019-Jan-21 05:56N 52°06' E 004°16'0 0.0
2019-Jan-21 05:26N 52°06' E 004°16'0 0.0
2019-Jan-21 04:56N 52°06' E 004°16'0 0.0
2019-Jan-21 04:20N 52°06' E 004°16'0 0.0
2019-Jan-21 03:56N 52°06' E 004°16'0 0.0
2019-Jan-21 03:26N 52°06' E 004°16'0 0.0
2019-Jan-21 02:56N 52°06' E 004°16'0 0.0
2019-Jan-21 02:20N 52°06' E 004°16'0 0.0
2019-Jan-21 01:56N 52°06' E 004°16'0 0.0
2019-Jan-21 01:26N 52°06' E 004°16'0 0.0
2019-Jan-21 00:56N 52°06' E 004°16'0 0.0
2019-Jan-21 00:14N 52°06' E 004°16'0 0.0
2019-Jan-20 23:56N 52°06' E 004°16'0 0.0
2019-Jan-20 23:26N 52°06' E 004°16'0 0.0
2019-Jan-20 22:56N 52°06' E 004°16'0 0.0
2019-Jan-20 22:26N 52°06' E 004°16'0 0.0
2019-Jan-20 21:56N 52°06' E 004°16'0 0.0
2019-Jan-20 21:26N 52°06' E 004°16'0 0.0
2019-Jan-20 20:56N 52°06' E 004°16'0 0.0
2019-Jan-20 20:26N 52°06' E 004°16'0 0.0
2019-Jan-20 19:56N 52°06' E 004°16'0 0.0
2019-Jan-20 19:26N 52°06' E 004°16'0 0.0
2019-Jan-20 18:56N 52°06' E 004°16'0 0.0
2019-Jan-20 18:26N 52°06' E 004°16'0 0.0
2019-Jan-20 17:56N 52°06' E 004°16'0 0.0
2019-Jan-20 17:26N 52°06' E 004°16'0 0.0
2019-Jan-20 16:50N 52°06' E 004°16'0 0.0
2019-Jan-20 16:26N 52°06' E 004°16'0 0.0
2019-Jan-20 15:56N 52°06' E 004°16'0 0.0
2019-Jan-20 15:26N 52°06' E 004°16'0 0.0
2019-Jan-20 14:50N 52°06' E 004°16'0 0.0
2019-Jan-20 14:26N 52°06' E 004°16'0 0.0
2019-Jan-20 13:59N 52°06' E 004°16'0 0.0
2019-Jan-20 13:26N 52°06' E 004°16'0 0.0
2019-Jan-20 12:26N 52°06' E 004°16'0 0.0
2019-Jan-20 11:56N 52°06' E 004°16'0 0.0
2019-Jan-20 11:26N 52°06' E 004°16'0 0.0
2019-Jan-20 10:56N 52°06' E 004°16'0 0.0
2019-Jan-20 10:26N 52°06' E 004°16'0 0.0
2019-Jan-20 09:56N 52°06' E 004°16'0 0.0
2019-Jan-20 09:26N 52°06' E 004°16'0 0.0
2019-Jan-20 08:56N 52°06' E 004°16'0 0.0
2019-Jan-20 08:26N 52°06' E 004°16'0 0.0
2019-Jan-20 07:56N 52°06' E 004°16'0 0.0
2019-Jan-20 07:26N 52°06' E 004°16'0 0.0
2019-Jan-20 06:56N 52°06' E 004°16'0 0.0
2019-Jan-20 06:26N 52°06' E 004°16'0 0.0
2019-Jan-20 05:56N 52°06' E 004°16'0 0.0
2019-Jan-20 05:26N 52°06' E 004°16'0 0.0
2019-Jan-20 04:56N 52°06' E 004°16'0 0.0
2019-Jan-20 04:29N 52°06' E 004°16'0 0.0
2019-Jan-20 03:59N 52°06' E 004°16'0 0.0
2019-Jan-20 03:29N 52°06' E 004°16'0 0.0
2019-Jan-20 02:59N 52°06' E 004°16'0 0.0
2019-Jan-20 02:29N 52°06' E 004°16'0 0.0
2019-Jan-20 01:59N 52°06' E 004°16'0 0.0
2019-Jan-20 01:29N 52°06' E 004°16'0 0.0
2019-Jan-20 00:59N 52°06' E 004°16'0 0.0
2019-Jan-20 00:29N 52°06' E 004°16'0 0.0
2019-Jan-19 23:59N 52°06' E 004°16'0 0.0
2019-Jan-19 23:29N 52°06' E 004°16'0 0.0
2019-Jan-19 22:59N 52°06' E 004°16'0 0.0
2019-Jan-19 22:29N 52°06' E 004°16'0 0.0
2019-Jan-19 21:59N 52°06' E 004°16'0 0.0
2019-Jan-19 21:29N 52°06' E 004°16'0 0.0
2019-Jan-19 20:59N 52°06' E 004°16'0 0.0
2019-Jan-19 20:29N 52°06' E 004°16'0 0.0
2019-Jan-19 19:59N 52°06' E 004°16'0 0.0
2019-Jan-19 19:29N 52°06' E 004°16'0 0.0
2019-Jan-19 18:59N 52°06' E 004°16'0 0.0
2019-Jan-19 18:29N 52°06' E 004°16'0 0.0
2019-Jan-19 17:59N 52°06' E 004°16'0 0.0
2019-Jan-19 17:29N 52°06' E 004°16'0 0.0
2019-Jan-19 16:59N 52°06' E 004°16'0 0.0
2019-Jan-19 16:29N 52°06' E 004°16'0 0.0
2019-Jan-19 15:59N 52°06' E 004°16'0 0.0
2019-Jan-19 15:29N 52°06' E 004°16'0 0.0
2019-Jan-19 14:59N 52°06' E 004°16'0 0.0
2019-Jan-19 14:29N 52°06' E 004°16'0 0.0
2019-Jan-19 13:59N 52°06' E 004°16'0 0.0
2019-Jan-19 13:29N 52°06' E 004°16'0 0.0
2019-Jan-19 12:59N 52°06' E 004°16'0 0.0
2019-Jan-19 12:29N 52°06' E 004°16'0 0.0
2019-Jan-19 11:59N 52°06' E 004°16'0 0.0
2019-Jan-19 11:29N 52°06' E 004°16'0 0.0
2019-Jan-19 10:59N 52°06' E 004°16'0 0.0
2019-Jan-19 10:29N 52°06' E 004°16'0 0.0
2019-Jan-19 09:59N 52°06' E 004°16'0 0.0
2019-Jan-19 09:29N 52°06' E 004°16'0 0.0
2019-Jan-19 08:56N 52°06' E 004°16'0 0.0
2019-Jan-19 08:29N 52°06' E 004°16'0 0.0
2019-Jan-19 07:59N 52°06' E 004°16'0 0.0
2019-Jan-19 07:26N 52°06' E 004°16'0 0.0
2019-Jan-19 06:59N 52°06' E 004°16'0 0.0
2019-Jan-19 06:29N 52°06' E 004°16'0 0.0
2019-Jan-19 05:59N 52°06' E 004°16'0 0.0
2019-Jan-19 05:29N 52°06' E 004°16'0 0.0
2019-Jan-19 04:59N 52°06' E 004°16'0 0.0
2019-Jan-19 04:29N 52°06' E 004°16'0 0.0
2019-Jan-19 03:29N 52°06' E 004°16'0 0.0
2019-Jan-19 02:59N 52°06' E 004°16'0 0.0
2019-Jan-19 02:29N 52°06' E 004°16'0 0.0
2019-Jan-19 01:59N 52°06' E 004°16'0 0.0
2019-Jan-19 01:29N 52°06' E 004°16'0 0.0
2019-Jan-19 00:59N 52°06' E 004°16'0 0.0
2019-Jan-19 00:26N 52°06' E 004°16'0 0.0
2019-Jan-18 23:59N 52°06' E 004°16'0 0.0
2019-Jan-18 23:29N 52°06' E 004°16'0 0.0
2019-Jan-18 22:59N 52°06' E 004°16'0 0.0
2019-Jan-18 22:29N 52°06' E 004°16'0 0.0
2019-Jan-18 21:59N 52°06' E 004°16'0 0.0
2019-Jan-18 21:29N 52°06' E 004°16'0 0.0
2019-Jan-18 20:59N 52°06' E 004°16'0 0.0
2019-Jan-18 20:29N 52°06' E 004°16'0 0.0
2019-Jan-18 19:59N 52°06' E 004°16'0 0.0
2019-Jan-18 19:29N 52°06' E 004°16'0 0.0
2019-Jan-18 18:59N 52°06' E 004°16'0 0.0
2019-Jan-18 18:29N 52°06' E 004°16'0 0.0
2019-Jan-18 17:59N 52°06' E 004°16'0 0.0
2019-Jan-18 17:29N 52°06' E 004°16'0 0.0
2019-Jan-18 16:56N 52°06' E 004°16'0 0.0
2019-Jan-18 16:29N 52°06' E 004°16'0 0.0
2019-Jan-18 15:59N 52°06' E 004°16'0 0.0
2019-Jan-18 15:29N 52°06' E 004°16'0 0.0
2019-Jan-18 14:59N 52°06' E 004°16'0 0.0
2019-Jan-18 14:29N 52°06' E 004°16'0 0.0
2019-Jan-18 13:59N 52°06' E 004°16'0 0.5
2019-Jan-18 13:30N 52°06' E 004°16'4 7.0
2019-Jan-18 13:00N 52°09' E 004°17'510.7
2019-Jan-18 12:30N 52°14' E 004°21'1 1.5
2019-Jan-18 12:00N 52°15' E 004°21'1 1.3
2019-Jan-18 11:30N 52°15' E 004°22'1 2.0
2019-Jan-18 11:00N 52°16' E 004°22'2 3.4
2019-Jan-18 10:30N 52°15' E 004°20'2 4.2
2019-Jan-18 10:00N 52°14' E 004°18'3 6.0
2019-Jan-18 09:30N 52°11' E 004°15'2 4.0
2019-Jan-18 09:01N 52°10' E 004°13'3 6.8
2019-Jan-18 08:31N 52°06' E 004°15'1 1.2
2019-Jan-18 08:00N 52°06' E 004°16'0 0.0
2019-Jan-18 07:31N 52°06' E 004°16'0 0.0
2019-Jan-18 06:56N 52°06' E 004°16'0 0.0
2019-Jan-18 06:26N 52°06' E 004°16'0 0.0
2019-Jan-18 05:56N 52°06' E 004°16'0 0.0
2019-Jan-18 05:29N 52°06' E 004°16'0 0.0
2019-Jan-18 04:59N 52°06' E 004°16'0 0.0
2019-Jan-18 04:29N 52°06' E 004°16'0 0.0
2019-Jan-18 03:59N 52°06' E 004°16'0 0.0
2019-Jan-18 03:26N 52°06' E 004°16'0 0.0
2019-Jan-18 02:47N 52°06' E 004°16'0 0.0
2019-Jan-18 02:29N 52°06' E 004°16'0 0.0
2019-Jan-18 01:59N 52°06' E 004°16'0 0.0
2019-Jan-18 01:29N 52°06' E 004°16'0 0.0
2019-Jan-18 00:59N 52°06' E 004°16'0 0.0
2019-Jan-18 00:26N 52°06' E 004°16'0 0.0
2019-Jan-17 23:59N 52°06' E 004°16'0 0.0
2019-Jan-17 23:29N 52°06' E 004°16'0 0.0
2019-Jan-17 22:59N 52°06' E 004°16'0 0.0
2019-Jan-17 22:26N 52°06' E 004°16'0 0.0
2019-Jan-17 21:56N 52°06' E 004°16'0 0.0
2019-Jan-17 21:29N 52°06' E 004°16'0 0.0
2019-Jan-17 20:59N 52°06' E 004°16'0 0.0
2019-Jan-17 20:29N 52°06' E 004°16'0 0.0
2019-Jan-17 19:59N 52°06' E 004°16'0 0.0
2019-Jan-17 19:29N 52°06' E 004°16'0 0.0
2019-Jan-17 18:59N 52°06' E 004°16'0 0.0
2019-Jan-17 18:29N 52°06' E 004°16'0 0.0
2019-Jan-17 17:59N 52°06' E 004°16'0 0.0
2019-Jan-17 17:26N 52°06' E 004°16'0 0.0
2019-Jan-17 16:56N 52°06' E 004°16'0 0.0
2019-Jan-17 16:29N 52°06' E 004°16'0 0.0
2019-Jan-17 15:59N 52°06' E 004°16'0 0.0
2019-Jan-17 15:26N 52°06' E 004°16'0 0.0
2019-Jan-17 14:59N 52°06' E 004°16'0 0.0
2019-Jan-17 14:29N 52°06' E 004°16'0 0.0
2019-Jan-17 13:56N 52°06' E 004°16'0 0.0
2019-Jan-17 13:29N 52°06' E 004°16'0 0.0
2019-Jan-17 12:59N 52°06' E 004°16'0 0.0
2019-Jan-17 12:29N 52°06' E 004°16'0 0.0
2019-Jan-17 11:59N 52°06' E 004°16'0 0.0
2019-Jan-17 11:29N 52°06' E 004°16'0 0.0
2019-Jan-17 10:59N 52°06' E 004°16'0 0.0
2019-Jan-17 10:26N 52°06' E 004°16'0 0.0
2019-Jan-17 09:59N 52°06' E 004°16'0 0.0
2019-Jan-17 09:29N 52°06' E 004°16'0 0.0
2019-Jan-17 08:59N 52°06' E 004°16'0 0.0
2019-Jan-17 08:29N 52°06' E 004°16'0 0.0
2019-Jan-17 07:59N 52°06' E 004°16'0 0.0
2019-Jan-17 07:29N 52°06' E 004°16'0 0.0
2019-Jan-17 06:53N 52°06' E 004°16'0 0.0
2019-Jan-17 06:29N 52°06' E 004°16'0 0.0
2019-Jan-17 05:59N 52°06' E 004°16'0 0.0
2019-Jan-17 05:29N 52°06' E 004°16'0 0.0
2019-Jan-17 04:53N 52°06' E 004°16'0 0.0
2019-Jan-17 04:29N 52°06' E 004°16'0 0.0
2019-Jan-17 03:59N 52°06' E 004°16'0 0.0
2019-Jan-17 02:59N 52°06' E 004°16'0 0.0
2019-Jan-17 02:29N 52°06' E 004°16'0 0.0
2019-Jan-17 01:59N 52°06' E 004°16'0 0.0
2019-Jan-17 01:29N 52°06' E 004°16'0 0.0
2019-Jan-17 00:59N 52°06' E 004°16'0 0.0
2019-Jan-17 00:26N 52°06' E 004°16'0 0.0
2019-Jan-16 23:59N 52°06' E 004°16'0 0.0
2019-Jan-16 23:26N 52°06' E 004°16'0 0.0
2019-Jan-16 22:56N 52°06' E 004°16'0 0.0
2019-Jan-16 22:26N 52°06' E 004°16'0 0.0
2019-Jan-16 21:59N 52°06' E 004°16'0 0.0
2019-Jan-16 21:29N 52°06' E 004°16'0 0.0
2019-Jan-16 20:59N 52°06' E 004°16'0 0.0
2019-Jan-16 20:29N 52°06' E 004°16'0 0.0
2019-Jan-16 19:59N 52°06' E 004°16'0 0.0
2019-Jan-16 19:29N 52°06' E 004°16'0 0.0
2019-Jan-16 18:59N 52°06' E 004°16'0 0.0
2019-Jan-16 18:26N 52°06' E 004°16'0 0.0
2019-Jan-16 17:59N 52°06' E 004°16'0 0.0
2019-Jan-16 17:26N 52°06' E 004°16'0 0.0
2019-Jan-16 16:56N 52°06' E 004°16'0 0.0
2019-Jan-16 16:29N 52°06' E 004°16'0 0.0
2019-Jan-16 15:59N 52°06' E 004°16'0 0.0
2019-Jan-16 15:29N 52°06' E 004°16'0 0.0
2019-Jan-16 14:59N 52°06' E 004°16'0 0.0
2019-Jan-16 14:29N 52°06' E 004°16'0 0.0
2019-Jan-16 13:56N 52°06' E 004°16'0 0.0
2019-Jan-16 13:29N 52°06' E 004°16'0 0.0
2019-Jan-16 12:59N 52°06' E 004°16'0 0.0
2019-Jan-16 12:26N 52°06' E 004°16'0 0.0
2019-Jan-16 11:59N 52°06' E 004°16'0 0.0
2019-Jan-16 11:29N 52°06' E 004°16'0 0.0
2019-Jan-16 10:59N 52°06' E 004°16'0 0.0
2019-Jan-16 10:29N 52°06' E 004°16'0 0.0
2019-Jan-16 09:59N 52°06' E 004°16'0 0.0
2019-Jan-16 09:29N 52°06' E 004°16'0 0.0
2019-Jan-16 08:59N 52°06' E 004°16'0 0.0
2019-Jan-16 08:29N 52°06' E 004°16'0 0.0
2019-Jan-16 07:59N 52°06' E 004°16'0 0.0
2019-Jan-16 07:29N 52°06' E 004°16'0 0.0
2019-Jan-16 06:59N 52°06' E 004°16'0 0.0
2019-Jan-16 06:26N 52°06' E 004°16'0 0.0
2019-Jan-16 05:59N 52°06' E 004°16'0 0.0
2019-Jan-16 05:29N 52°06' E 004°16'0 0.0
2019-Jan-16 04:53N 52°06' E 004°16'0 0.0
2019-Jan-16 04:29N 52°06' E 004°16'0 0.0
2019-Jan-16 03:59N 52°06' E 004°16'0 0.0
2019-Jan-16 03:29N 52°06' E 004°16'0 0.0
2019-Jan-16 02:59N 52°06' E 004°16'0 0.0
2019-Jan-16 02:26N 52°06' E 004°16'0 0.0
2019-Jan-16 01:59N 52°06' E 004°16'0 0.0
2019-Jan-16 01:29N 52°06' E 004°16'0 0.0
2019-Jan-16 00:59N 52°06' E 004°16'0 0.0
2019-Jan-16 00:29N 52°06' E 004°16'0 0.0
2019-Jan-15 23:59N 52°06' E 004°16'0 0.0
2019-Jan-15 23:29N 52°06' E 004°16'0 0.0
2019-Jan-15 22:59N 52°06' E 004°16'0 0.0
2019-Jan-15 22:29N 52°06' E 004°16'0 0.0
2019-Jan-15 21:59N 52°06' E 004°16'0 0.0
2019-Jan-15 21:29N 52°06' E 004°16'0 0.0
2019-Jan-15 20:59N 52°06' E 004°16'0 0.0
2019-Jan-15 20:29N 52°06' E 004°16'0 0.0
2019-Jan-15 19:59N 52°06' E 004°16'0 0.0
2019-Jan-15 19:26N 52°06' E 004°16'0 0.0
2019-Jan-15 18:59N 52°06' E 004°16'0 0.0
2019-Jan-15 18:29N 52°06' E 004°16'0 0.0
2019-Jan-15 17:59N 52°06' E 004°16'0 0.0
2019-Jan-15 17:29N 52°06' E 004°16'0 0.0
2019-Jan-15 16:59N 52°06' E 004°16'0 0.0
2019-Jan-15 16:29N 52°06' E 004°16'0 0.0
2019-Jan-15 15:59N 52°06' E 004°16'0 0.0
2019-Jan-15 15:29N 52°06' E 004°16'0 0.0
2019-Jan-15 14:59N 52°06' E 004°16'0 0.0
2019-Jan-15 14:29N 52°06' E 004°16'0 0.0
2019-Jan-15 13:59N 52°06' E 004°16'0 0.0
2019-Jan-15 13:29N 52°06' E 004°16'0 0.0
2019-Jan-15 12:59N 52°06' E 004°16'0 0.0
2019-Jan-15 12:29N 52°06' E 004°16'0 0.0
2019-Jan-15 11:59N 52°06' E 004°16'0 0.0
2019-Jan-15 11:29N 52°06' E 004°16'0 0.0
2019-Jan-15 10:59N 52°06' E 004°16'0 0.0
2019-Jan-15 10:29N 52°06' E 004°16'0 0.0
2019-Jan-15 09:59N 52°06' E 004°16'0 0.2
2019-Jan-15 09:30N 52°06' E 004°16'612.8
2019-Jan-15 09:00N 52°04' E 004°06'815.6
2019-Jan-15 08:31N 51°59' E 003°56'815.3
2019-Jan-15 08:00N 51°52' E 003°50'510.0
2019-Jan-15 07:30N 51°51' E 003°58'3 5.4
2019-Jan-15 07:00N 51°50' E 004°02'0 0.9
2019-Jan-15 06:31N 51°49' E 004°03'0 0.2
2019-Jan-15 06:01N 51°49' E 004°03'0 0.0
2019-Jan-15 05:29N 51°49' E 004°03'0 0.0
2019-Jan-15 04:59N 51°49' E 004°03'0 0.0
2019-Jan-15 04:29N 51°49' E 004°03'0 0.0
2019-Jan-15 03:59N 51°49' E 004°03'0 0.0
2019-Jan-15 03:29N 51°49' E 004°03'0 0.0
2019-Jan-15 02:59N 51°49' E 004°03'0 0.0
2019-Jan-15 02:29N 51°49' E 004°03'0 0.0
2019-Jan-15 01:59N 51°49' E 004°03'0 0.0
2019-Jan-15 01:29N 51°49' E 004°03'0 0.0
2019-Jan-15 00:59N 51°49' E 004°03'0 0.0
2019-Jan-15 00:29N 51°49' E 004°03'0 0.0
2019-Jan-14 23:59N 51°49' E 004°03'0 0.0
2019-Jan-14 23:29N 51°49' E 004°03'0 0.0
2019-Jan-14 22:59N 51°49' E 004°03'0 0.0
2019-Jan-14 22:29N 51°49' E 004°03'0 0.0
2019-Jan-14 21:59N 51°49' E 004°03'0 0.0
2019-Jan-14 21:29N 51°49' E 004°03'0 0.0
2019-Jan-14 20:56N 51°49' E 004°03'0 0.0
2019-Jan-14 20:29N 51°49' E 004°03'0 0.0
2019-Jan-14 19:59N 51°49' E 004°03'0 0.0
2019-Jan-14 19:29N 51°49' E 004°03'0 0.0
2019-Jan-14 18:59N 51°49' E 004°03'0 0.0
2019-Jan-14 18:29N 51°49' E 004°03'0 0.0
2019-Jan-14 17:59N 51°49' E 004°03'0 0.0
2019-Jan-14 17:29N 51°49' E 004°03'0 0.0
2019-Jan-14 16:59N 51°49' E 004°03'0 0.0
2019-Jan-14 16:29N 51°49' E 004°03'0 0.0
2019-Jan-14 15:59N 51°49' E 004°03'0 0.0
2019-Jan-14 15:29N 51°49' E 004°03'0 0.0
2019-Jan-14 14:59N 51°49' E 004°03'0 0.0
2019-Jan-14 14:29N 51°49' E 004°03'0 0.0
2019-Jan-14 13:56N 51°49' E 004°03'0 0.0
2019-Jan-14 13:29N 51°49' E 004°03'0 0.0
2019-Jan-14 12:59N 51°49' E 004°03'0 0.0
2019-Jan-14 12:29N 51°49' E 004°03'0 0.0
2019-Jan-14 11:59N 51°49' E 004°03'0 0.0
2019-Jan-14 11:29N 51°49' E 004°03'0 0.0
2019-Jan-14 10:59N 51°49' E 004°03'0 0.0
2019-Jan-14 10:29N 51°49' E 004°03'0 0.0
2019-Jan-14 09:59N 51°49' E 004°03'0 0.0
2019-Jan-14 09:29N 51°49' E 004°03'0 0.0
2019-Jan-14 08:59N 51°49' E 004°03'0 0.0
2019-Jan-14 08:29N 51°49' E 004°03'0 0.0
2019-Jan-14 07:59N 51°49' E 004°03'0 0.0
2019-Jan-14 07:29N 51°49' E 004°03'0 0.0
2019-Jan-14 06:59N 51°49' E 004°03'0 0.0
2019-Jan-14 06:29N 51°49' E 004°03'0 0.0
2019-Jan-14 05:59N 51°49' E 004°03'0 0.0
2019-Jan-14 05:29N 51°49' E 004°03'0 0.0
2019-Jan-14 04:59N 51°49' E 004°03'0 0.0
2019-Jan-14 04:29N 51°49' E 004°03'0 0.0
2019-Jan-14 03:59N 51°49' E 004°03'0 0.0
2019-Jan-14 03:29N 51°49' E 004°03'0 0.0
2019-Jan-14 03:00N 51°49' E 004°03'0 0.0
2019-Jan-14 02:30N 51°49' E 004°03'0 0.0
2019-Jan-14 02:00N 51°49' E 004°03'0 0.0
2019-Jan-14 01:30N 51°49' E 004°03'0 0.0
2019-Jan-14 01:00N 51°49' E 004°03'0 0.0
2019-Jan-14 00:30N 51°49' E 004°03'0 0.0
2019-Jan-14 00:00N 51°49' E 004°03'0 0.0
2019-Jan-13 23:30N 51°49' E 004°03'0 0.0
2019-Jan-13 23:00N 51°49' E 004°03'0 0.0
2019-Jan-13 22:30N 51°49' E 004°03'0 0.0
2019-Jan-13 22:00N 51°49' E 004°03'0 0.0
2019-Jan-13 21:30N 51°49' E 004°03'0 0.0
2019-Jan-13 21:00N 51°49' E 004°03'0 0.0
2019-Jan-13 20:30N 51°49' E 004°03'0 0.0
2019-Jan-13 20:00N 51°49' E 004°03'0 0.0
2019-Jan-13 19:30N 51°49' E 004°03'0 0.0
2019-Jan-13 18:57N 51°49' E 004°03'0 0.0
2019-Jan-13 18:30N 51°49' E 004°03'0 0.0
2019-Jan-13 18:00N 51°49' E 004°03'0 0.0
2019-Jan-13 17:30N 51°49' E 004°03'0 0.0
2019-Jan-13 17:00N 51°49' E 004°03'0 0.0
2019-Jan-13 16:30N 51°49' E 004°03'0 0.0
2019-Jan-13 16:00N 51°49' E 004°03'0 0.0
2019-Jan-13 15:30N 51°49' E 004°03'0 0.0
2019-Jan-13 15:00N 51°49' E 004°03'0 0.0
2019-Jan-13 14:30N 51°49' E 004°03'0 0.0
2019-Jan-13 14:00N 51°49' E 004°03'0 0.0
2019-Jan-13 13:30N 51°49' E 004°03'0 0.0
2019-Jan-13 13:00N 51°49' E 004°03'0 0.0
2019-Jan-13 12:30N 51°49' E 004°03'0 0.0
2019-Jan-13 12:00N 51°49' E 004°03'0 0.0
2019-Jan-13 11:30N 51°49' E 004°03'0 0.0
2019-Jan-13 11:00N 51°49' E 004°03'0 0.0
2019-Jan-13 10:30N 51°49' E 004°03'0 0.0
2019-Jan-13 10:00N 51°49' E 004°03'0 0.0
2019-Jan-13 09:30N 51°49' E 004°03'0 0.0
2019-Jan-13 09:00N 51°49' E 004°03'0 0.0
2019-Jan-13 08:30N 51°49' E 004°03'0 0.0
2019-Jan-13 07:59N 51°49' E 004°03'0 0.0
2019-Jan-13 07:29N 51°49' E 004°03'0 0.0
2019-Jan-13 06:59N 51°49' E 004°03'0 0.0
2019-Jan-13 06:29N 51°49' E 004°03'0 0.0
2019-Jan-13 05:59N 51°49' E 004°03'0 0.0
2019-Jan-13 05:29N 51°49' E 004°03'0 0.0
2019-Jan-13 04:59N 51°49' E 004°03'0 0.0
2019-Jan-13 04:29N 51°49' E 004°03'0 0.0
2019-Jan-13 03:59N 51°49' E 004°03'0 0.0
2019-Jan-13 03:29N 51°49' E 004°03'0 0.0
2019-Jan-13 02:59N 51°49' E 004°03'0 0.0
2019-Jan-13 02:29N 51°49' E 004°03'0 0.0
2019-Jan-13 01:59N 51°49' E 004°03'0 0.0
2019-Jan-13 01:29N 51°49' E 004°03'0 0.0
2019-Jan-13 00:59N 51°49' E 004°03'0 0.0
2019-Jan-13 00:29N 51°49' E 004°03'0 0.0
2019-Jan-12 23:56N 51°49' E 004°03'0 0.0
2019-Jan-12 23:29N 51°49' E 004°03'0 0.0
2019-Jan-12 22:59N 51°49' E 004°03'0 0.0
2019-Jan-12 22:29N 51°49' E 004°03'0 0.0
2019-Jan-12 21:59N 51°49' E 004°03'  
Track history (hours):
 
Tides and Currents Weather Stations Pressure Air Temp Water Temp Dewpoint Dewpoint Depression Visibility Wind Speed Wind Dir Waves Ship Positions

Oceanographic research ship Tridens (Netherlands)

Detailed information on ship capabilities available from University of Delaware's Ocean Information Center.

Last reported at 2019-Jan-22 21:43 UTC. Time now 2019-Jan-24 11:38 UTC.
Position N 53°57' E 007°48'.

Length 74 m; beam 14 m.

Type: Other ship. MMSI: 244033000.

Date/timePositionNaut miles runAvg speedWind from/ knotsBaromVisibWave heightAir tempDewpointWater temp
2019-Jan-22 21:43N 53°57' E 007°48'92 4.8
2019-Jan-22 02:43N 53°38' E 005°16'3 5.6
2019-Jan-22 02:14N 53°39' E 005°11'312.6
2019-Jan-22 02:00N 53°39' E 005°06'713.5
2019-Jan-22 01:30N 53°38' E 004°55'64 8.7
2019-Jan-21 18:11N 52°39' E 004°12'1 2.9
2019-Jan-21 17:59N 52°40' E 004°13'1 2.2
2019-Jan-21 17:29N 52°41' E 004°13'4 7.9
2019-Jan-21 17:00N 52°41' E 004°19'2 4.0
2019-Jan-21 16:29N 52°39' E 004°22'3 4.7
2019-Jan-21 15:57N 52°37' E 004°20'512.3
2019-Jan-21 15:30N 52°32' E 004°22'816.6
2019-Jan-21 15:00N 52°24' E 004°20'816.8
2019-Jan-21 14:30N 52°15' E 004°18'816.4
2019-Jan-21 14:00N 52°07' E 004°15'1 1.6
2019-Jan-21 13:30N 52°06' E 004°15'5 9.7
2019-Jan-21 13:00N 52°11' E 004°18'2 3.4
2019-Jan-21 12:30N 52°12' E 004°19'1 1.3
2019-Jan-21 12:00N 52°13' E 004°20'2 3.5
2019-Jan-21 11:30N 52°11' E 004°18'2 3.9
2019-Jan-21 11:00N 52°10' E 004°16'3 5.3
2019-Jan-21 10:30N 52°07' E 004°15'2 2.7
2019-Jan-21 09:56N 52°06' E 004°16'0 0.0
2019-Jan-21 09:26N 52°06' E 004°16'0 0.0
2019-Jan-21 08:56N 52°06' E 004°16'0 0.0
2019-Jan-21 08:26N 52°06' E 004°16'0 0.0
2019-Jan-21 07:56N 52°06' E 004°16'0 0.0
2019-Jan-21 07:26N 52°06' E 004°16'0 0.0
2019-Jan-21 06:56N 52°06' E 004°16'0 0.0
2019-Jan-21 06:26N 52°06' E 004°16'0 0.0
2019-Jan-21 05:56N 52°06' E 004°16'0 0.0
2019-Jan-21 05:26N 52°06' E 004°16'0 0.0
2019-Jan-21 04:56N 52°06' E 004°16'0 0.0
2019-Jan-21 04:20N 52°06' E 004°16'0 0.0
2019-Jan-21 03:56N 52°06' E 004°16'0 0.0
2019-Jan-21 03:26N 52°06' E 004°16'0 0.0
2019-Jan-21 02:56N 52°06' E 004°16'0 0.0
2019-Jan-21 02:20N 52°06' E 004°16'0 0.0
2019-Jan-21 01:56N 52°06' E 004°16'0 0.0
2019-Jan-21 01:26N 52°06' E 004°16'0 0.0
2019-Jan-21 00:56N 52°06' E 004°16'0 0.0
2019-Jan-21 00:14N 52°06' E 004°16'0 0.0
2019-Jan-20 23:56N 52°06' E 004°16'0 0.0
2019-Jan-20 23:26N 52°06' E 004°16'0 0.0
2019-Jan-20 22:56N 52°06' E 004°16'0 0.0
2019-Jan-20 22:26N 52°06' E 004°16'0 0.0
2019-Jan-20 21:56N 52°06' E 004°16'0 0.0
2019-Jan-20 21:26N 52°06' E 004°16'0 0.0
2019-Jan-20 20:56N 52°06' E 004°16'0 0.0
2019-Jan-20 20:26N 52°06' E 004°16'0 0.0
2019-Jan-20 19:56N 52°06' E 004°16'0 0.0
2019-Jan-20 19:26N 52°06' E 004°16'0 0.0
2019-Jan-20 18:56N 52°06' E 004°16'0 0.0
2019-Jan-20 18:26N 52°06' E 004°16'0 0.0
2019-Jan-20 17:56N 52°06' E 004°16'0 0.0
2019-Jan-20 17:26N 52°06' E 004°16'0 0.0
2019-Jan-20 16:50N 52°06' E 004°16'0 0.0
2019-Jan-20 16:26N 52°06' E 004°16'0 0.0
2019-Jan-20 15:56N 52°06' E 004°16'0 0.0
2019-Jan-20 15:26N 52°06' E 004°16'0 0.0
2019-Jan-20 14:50N 52°06' E 004°16'0 0.0
2019-Jan-20 14:26N 52°06' E 004°16'0 0.0
2019-Jan-20 13:59N 52°06' E 004°16'0 0.0
2019-Jan-20 13:26N 52°06' E 004°16'0 0.0
2019-Jan-20 12:26N 52°06' E 004°16'0 0.0
2019-Jan-20 11:56N 52°06' E 004°16'0 0.0
2019-Jan-20 11:26N 52°06' E 004°16'0 0.0
2019-Jan-20 10:56N 52°06' E 004°16'0 0.0
2019-Jan-20 10:26N 52°06' E 004°16'0 0.0
2019-Jan-20 09:56N 52°06' E 004°16'0 0.0
2019-Jan-20 09:26N 52°06' E 004°16'0 0.0
2019-Jan-20 08:56N 52°06' E 004°16'0 0.0
2019-Jan-20 08:26N 52°06' E 004°16'0 0.0
2019-Jan-20 07:56N 52°06' E 004°16'0 0.0
2019-Jan-20 07:26N 52°06' E 004°16'0 0.0
2019-Jan-20 06:56N 52°06' E 004°16'0 0.0
2019-Jan-20 06:26N 52°06' E 004°16'0 0.0
2019-Jan-20 05:56N 52°06' E 004°16'0 0.0
2019-Jan-20 05:26N 52°06' E 004°16'0 0.0
2019-Jan-20 04:56N 52°06' E 004°16'0 0.0
2019-Jan-20 04:29N 52°06' E 004°16'0 0.0
2019-Jan-20 03:59N 52°06' E 004°16'0 0.0
2019-Jan-20 03:29N 52°06' E 004°16'0 0.0
2019-Jan-20 02:59N 52°06' E 004°16'0 0.0
2019-Jan-20 02:29N 52°06' E 004°16'0 0.0
2019-Jan-20 01:59N 52°06' E 004°16'0 0.0
2019-Jan-20 01:29N 52°06' E 004°16'0 0.0
2019-Jan-20 00:59N 52°06' E 004°16'0 0.0
2019-Jan-20 00:29N 52°06' E 004°16'0 0.0
2019-Jan-19 23:59N 52°06' E 004°16'0 0.0
2019-Jan-19 23:29N 52°06' E 004°16'0 0.0
2019-Jan-19 22:59N 52°06' E 004°16'0 0.0
2019-Jan-19 22:29N 52°06' E 004°16'0 0.0
2019-Jan-19 21:59N 52°06' E 004°16'0 0.0
2019-Jan-19 21:29N 52°06' E 004°16'0 0.0
2019-Jan-19 20:59N 52°06' E 004°16'0 0.0
2019-Jan-19 20:29N 52°06' E 004°16'0 0.0
2019-Jan-19 19:59N 52°06' E 004°16'0 0.0
2019-Jan-19 19:29N 52°06' E 004°16'0 0.0
2019-Jan-19 18:59N 52°06' E 004°16'0 0.0
2019-Jan-19 18:29N 52°06' E 004°16'0 0.0
2019-Jan-19 17:59N 52°06' E 004°16'0 0.0
2019-Jan-19 17:29N 52°06' E 004°16'0 0.0
2019-Jan-19 16:59N 52°06' E 004°16'0 0.0
2019-Jan-19 16:29N 52°06' E 004°16'0 0.0
2019-Jan-19 15:59N 52°06' E 004°16'0 0.0
2019-Jan-19 15:29N 52°06' E 004°16'0 0.0
2019-Jan-19 14:59N 52°06' E 004°16'0 0.0
2019-Jan-19 14:29N 52°06' E 004°16'0 0.0
2019-Jan-19 13:59N 52°06' E 004°16'0 0.0
2019-Jan-19 13:29N 52°06' E 004°16'0 0.0
2019-Jan-19 12:59N 52°06' E 004°16'0 0.0
2019-Jan-19 12:29N 52°06' E 004°16'0 0.0
2019-Jan-19 11:59N 52°06' E 004°16'0 0.0
2019-Jan-19 11:29N 52°06' E 004°16'0 0.0
2019-Jan-19 10:59N 52°06' E 004°16'0 0.0
2019-Jan-19 10:29N 52°06' E 004°16'0 0.0
2019-Jan-19 09:59N 52°06' E 004°16'0 0.0
2019-Jan-19 09:29N 52°06' E 004°16'0 0.0
2019-Jan-19 08:56N 52°06' E 004°16'0 0.0
2019-Jan-19 08:29N 52°06' E 004°16'0 0.0
2019-Jan-19 07:59N 52°06' E 004°16'0 0.0
2019-Jan-19 07:26N 52°06' E 004°16'0 0.0
2019-Jan-19 06:59N 52°06' E 004°16'0 0.0
2019-Jan-19 06:29N 52°06' E 004°16'0 0.0
2019-Jan-19 05:59N 52°06' E 004°16'0 0.0
2019-Jan-19 05:29N 52°06' E 004°16'0 0.0
2019-Jan-19 04:59N 52°06' E 004°16'0 0.0
2019-Jan-19 04:29N 52°06' E 004°16'0 0.0
2019-Jan-19 03:29N 52°06' E 004°16'0 0.0
2019-Jan-19 02:59N 52°06' E 004°16'0 0.0
2019-Jan-19 02:29N 52°06' E 004°16'0 0.0
2019-Jan-19 01:59N 52°06' E 004°16'0 0.0
2019-Jan-19 01:29N 52°06' E 004°16'0 0.0
2019-Jan-19 00:59N 52°06' E 004°16'0 0.0
2019-Jan-19 00:26N 52°06' E 004°16'0 0.0
2019-Jan-18 23:59N 52°06' E 004°16'0 0.0
2019-Jan-18 23:29N 52°06' E 004°16'0 0.0
2019-Jan-18 22:59N 52°06' E 004°16'0 0.0
2019-Jan-18 22:29N 52°06' E 004°16'0 0.0
2019-Jan-18 21:59N 52°06' E 004°16'0 0.0
2019-Jan-18 21:29N 52°06' E 004°16'0 0.0
2019-Jan-18 20:59N 52°06' E 004°16'0 0.0
2019-Jan-18 20:29N 52°06' E 004°16'0 0.0
2019-Jan-18 19:59N 52°06' E 004°16'0 0.0
2019-Jan-18 19:29N 52°06' E 004°16'0 0.0
2019-Jan-18 18:59N 52°06' E 004°16'0 0.0
2019-Jan-18 18:29N 52°06' E 004°16'0 0.0
2019-Jan-18 17:59N 52°06' E 004°16'0 0.0
2019-Jan-18 17:29N 52°06' E 004°16'0 0.0
2019-Jan-18 16:56N 52°06' E 004°16'0 0.0
2019-Jan-18 16:29N 52°06' E 004°16'0 0.0
2019-Jan-18 15:59N 52°06' E 004°16'0 0.0
2019-Jan-18 15:29N 52°06' E 004°16'0 0.0
2019-Jan-18 14:59N 52°06' E 004°16'0 0.0
2019-Jan-18 14:29N 52°06' E 004°16'0 0.0
2019-Jan-18 13:59N 52°06' E 004°16'0 0.5
2019-Jan-18 13:30N 52°06' E 004°16'4 7.0
2019-Jan-18 13:00N 52°09' E 004°17'510.7
2019-Jan-18 12:30N 52°14' E 004°21'1 1.5
2019-Jan-18 12:00N 52°15' E 004°21'1 1.3
2019-Jan-18 11:30N 52°15' E 004°22'1 2.0
2019-Jan-18 11:00N 52°16' E 004°22'2 3.4
2019-Jan-18 10:30N 52°15' E 004°20'2 4.2
2019-Jan-18 10:00N 52°14' E 004°18'3 6.0
2019-Jan-18 09:30N 52°11' E 004°15'2 4.0
2019-Jan-18 09:01N 52°10' E 004°13'3 6.8
2019-Jan-18 08:31N 52°06' E 004°15'1 1.2
2019-Jan-18 08:00N 52°06' E 004°16'0 0.0
2019-Jan-18 07:31N 52°06' E 004°16'0 0.0
2019-Jan-18 06:56N 52°06' E 004°16'0 0.0
2019-Jan-18 06:26N 52°06' E 004°16'0 0.0
2019-Jan-18 05:56N 52°06' E 004°16'0 0.0
2019-Jan-18 05:29N 52°06' E 004°16'0 0.0
2019-Jan-18 04:59N 52°06' E 004°16'0 0.0
2019-Jan-18 04:29N 52°06' E 004°16'0 0.0
2019-Jan-18 03:59N 52°06' E 004°16'0 0.0
2019-Jan-18 03:26N 52°06' E 004°16'0 0.0
2019-Jan-18 02:47N 52°06' E 004°16'0 0.0
2019-Jan-18 02:29N 52°06' E 004°16'0 0.0
2019-Jan-18 01:59N 52°06' E 004°16'0 0.0
2019-Jan-18 01:29N 52°06' E 004°16'0 0.0
2019-Jan-18 00:59N 52°06' E 004°16'0 0.0
2019-Jan-18 00:26N 52°06' E 004°16'0 0.0
2019-Jan-17 23:59N 52°06' E 004°16'0 0.0
2019-Jan-17 23:29N 52°06' E 004°16'0 0.0
2019-Jan-17 22:59N 52°06' E 004°16'0 0.0
2019-Jan-17 22:26N 52°06' E 004°16'0 0.0
2019-Jan-17 21:56N 52°06' E 004°16'0 0.0
2019-Jan-17 21:29N 52°06' E 004°16'0 0.0
2019-Jan-17 20:59N 52°06' E 004°16'0 0.0
2019-Jan-17 20:29N 52°06' E 004°16'0 0.0
2019-Jan-17 19:59N 52°06' E 004°16'0 0.0
2019-Jan-17 19:29N 52°06' E 004°16'0 0.0
2019-Jan-17 18:59N 52°06' E 004°16'0 0.0
2019-Jan-17 18:29N 52°06' E 004°16'0 0.0
2019-Jan-17 17:59N 52°06' E 004°16'0 0.0
2019-Jan-17 17:26N 52°06' E 004°16'0 0.0
2019-Jan-17 16:56N 52°06' E 004°16'0 0.0
2019-Jan-17 16:29N 52°06' E 004°16'0 0.0
2019-Jan-17 15:59N 52°06' E 004°16'0 0.0
2019-Jan-17 15:26N 52°06' E 004°16'0 0.0
2019-Jan-17 14:59N 52°06' E 004°16'0 0.0
2019-Jan-17 14:29N 52°06' E 004°16'0 0.0
2019-Jan-17 13:56N 52°06' E 004°16'0 0.0
2019-Jan-17 13:29N 52°06' E 004°16'0 0.0
2019-Jan-17 12:59N 52°06' E 004°16'0 0.0
2019-Jan-17 12:29N 52°06' E 004°16'0 0.0
2019-Jan-17 11:59N 52°06' E 004°16'0 0.0
2019-Jan-17 11:29N 52°06' E 004°16'0 0.0
2019-Jan-17 10:59N 52°06' E 004°16'0 0.0
2019-Jan-17 10:26N 52°06' E 004°16'0 0.0
2019-Jan-17 09:59N 52°06' E 004°16'0 0.0
2019-Jan-17 09:29N 52°06' E 004°16'0 0.0
2019-Jan-17 08:59N 52°06' E 004°16'0 0.0
2019-Jan-17 08:29N 52°06' E 004°16'0 0.0
2019-Jan-17 07:59N 52°06' E 004°16'0 0.0
2019-Jan-17 07:29N 52°06' E 004°16'0 0.0
2019-Jan-17 06:53N 52°06' E 004°16'0 0.0
2019-Jan-17 06:29N 52°06' E 004°16'0 0.0
2019-Jan-17 05:59N 52°06' E 004°16'0 0.0
2019-Jan-17 05:29N 52°06' E 004°16'0 0.0
2019-Jan-17 04:53N 52°06' E 004°16'0 0.0
2019-Jan-17 04:29N 52°06' E 004°16'0 0.0
2019-Jan-17 03:59N 52°06' E 004°16'0 0.0
2019-Jan-17 02:59N 52°06' E 004°16'0 0.0
2019-Jan-17 02:29N 52°06' E 004°16'0 0.0
2019-Jan-17 01:59N 52°06' E 004°16'0 0.0
2019-Jan-17 01:29N 52°06' E 004°16'0 0.0
2019-Jan-17 00:59N 52°06' E 004°16'0 0.0
2019-Jan-17 00:26N 52°06' E 004°16'0 0.0
2019-Jan-16 23:59N 52°06' E 004°16'0 0.0
2019-Jan-16 23:26N 52°06' E 004°16'0 0.0
2019-Jan-16 22:56N 52°06' E 004°16'0 0.0
2019-Jan-16 22:26N 52°06' E 004°16'0 0.0
2019-Jan-16 21:59N 52°06' E 004°16'0 0.0
2019-Jan-16 21:29N 52°06' E 004°16'0 0.0
2019-Jan-16 20:59N 52°06' E 004°16'0 0.0
2019-Jan-16 20:29N 52°06' E 004°16'0 0.0
2019-Jan-16 19:59N 52°06' E 004°16'0 0.0
2019-Jan-16 19:29N 52°06' E 004°16'0 0.0
2019-Jan-16 18:59N 52°06' E 004°16'0 0.0
2019-Jan-16 18:26N 52°06' E 004°16'0 0.0
2019-Jan-16 17:59N 52°06' E 004°16'0 0.0
2019-Jan-16 17:26N 52°06' E 004°16'0 0.0
2019-Jan-16 16:56N 52°06' E 004°16'0 0.0
2019-Jan-16 16:29N 52°06' E 004°16'0 0.0
2019-Jan-16 15:59N 52°06' E 004°16'0 0.0
2019-Jan-16 15:29N 52°06' E 004°16'0 0.0
2019-Jan-16 14:59N 52°06' E 004°16'0 0.0
2019-Jan-16 14:29N 52°06' E 004°16'0 0.0
2019-Jan-16 13:56N 52°06' E 004°16'0 0.0
2019-Jan-16 13:29N 52°06' E 004°16'0 0.0
2019-Jan-16 12:59N 52°06' E 004°16'0 0.0
2019-Jan-16 12:26N 52°06' E 004°16'0 0.0
2019-Jan-16 11:59N 52°06' E 004°16'0 0.0
2019-Jan-16 11:29N 52°06' E 004°16'0 0.0
2019-Jan-16 10:59N 52°06' E 004°16'0 0.0
2019-Jan-16 10:29N 52°06' E 004°16'0 0.0
2019-Jan-16 09:59N 52°06' E 004°16'0 0.0
2019-Jan-16 09:29N 52°06' E 004°16'0 0.0
2019-Jan-16 08:59N 52°06' E 004°16'0 0.0
2019-Jan-16 08:29N 52°06' E 004°16'0 0.0
2019-Jan-16 07:59N 52°06' E 004°16'0 0.0
2019-Jan-16 07:29N 52°06' E 004°16'0 0.0
2019-Jan-16 06:59N 52°06' E 004°16'0 0.0
2019-Jan-16 06:26N 52°06' E 004°16'0 0.0
2019-Jan-16 05:59N 52°06' E 004°16'0 0.0
2019-Jan-16 05:29N 52°06' E 004°16'0 0.0
2019-Jan-16 04:53N 52°06' E 004°16'0 0.0
2019-Jan-16 04:29N 52°06' E 004°16'0 0.0
2019-Jan-16 03:59N 52°06' E 004°16'0 0.0
2019-Jan-16 03:29N 52°06' E 004°16'0 0.0
2019-Jan-16 02:59N 52°06' E 004°16'0 0.0
2019-Jan-16 02:26N 52°06' E 004°16'0 0.0
2019-Jan-16 01:59N 52°06' E 004°16'0 0.0
2019-Jan-16 01:29N 52°06' E 004°16'0 0.0
2019-Jan-16 00:59N 52°06' E 004°16'0 0.0
2019-Jan-16 00:29N 52°06' E 004°16'0 0.0
2019-Jan-15 23:59N 52°06' E 004°16'0 0.0
2019-Jan-15 23:29N 52°06' E 004°16'0 0.0
2019-Jan-15 22:59N 52°06' E 004°16'0 0.0
2019-Jan-15 22:29N 52°06' E 004°16'0 0.0
2019-Jan-15 21:59N 52°06' E 004°16'0 0.0
2019-Jan-15 21:29N 52°06' E 004°16'0 0.0
2019-Jan-15 20:59N 52°06' E 004°16'0 0.0
2019-Jan-15 20:29N 52°06' E 004°16'0 0.0
2019-Jan-15 19:59N 52°06' E 004°16'0 0.0
2019-Jan-15 19:26N 52°06' E 004°16'0 0.0
2019-Jan-15 18:59N 52°06' E 004°16'0 0.0
2019-Jan-15 18:29N 52°06' E 004°16'0 0.0
2019-Jan-15 17:59N 52°06' E 004°16'0 0.0
2019-Jan-15 17:29N 52°06' E 004°16'0 0.0
2019-Jan-15 16:59N 52°06' E 004°16'0 0.0
2019-Jan-15 16:29N 52°06' E 004°16'0 0.0
2019-Jan-15 15:59N 52°06' E 004°16'0 0.0
2019-Jan-15 15:29N 52°06' E 004°16'0 0.0
2019-Jan-15 14:59N 52°06' E 004°16'0 0.0
2019-Jan-15 14:29N 52°06' E 004°16'0 0.0
2019-Jan-15 13:59N 52°06' E 004°16'0 0.0
2019-Jan-15 13:29N 52°06' E 004°16'0 0.0
2019-Jan-15 12:59N 52°06' E 004°16'0 0.0
2019-Jan-15 12:29N 52°06' E 004°16'0 0.0
2019-Jan-15 11:59N 52°06' E 004°16'0 0.0
2019-Jan-15 11:29N 52°06' E 004°16'0 0.0
2019-Jan-15 10:59N 52°06' E 004°16'0 0.0
2019-Jan-15 10:29N 52°06' E 004°16'0 0.0
2019-Jan-15 09:59N 52°06' E 004°16'0 0.2
2019-Jan-15 09:30N 52°06' E 004°16'612.8
2019-Jan-15 09:00N 52°04' E 004°06'815.6
2019-Jan-15 08:31N 51°59' E 003°56'815.3
2019-Jan-15 08:00N 51°52' E 003°50'510.0
2019-Jan-15 07:30N 51°51' E 003°58'3 5.4
2019-Jan-15 07:00N 51°50' E 004°02'0 0.9
2019-Jan-15 06:31N 51°49' E 004°03'0 0.2
2019-Jan-15 06:01N 51°49' E 004°03'0 0.0
2019-Jan-15 05:29N 51°49' E 004°03'0 0.0
2019-Jan-15 04:59N 51°49' E 004°03'0 0.0
2019-Jan-15 04:29N 51°49' E 004°03'0 0.0
2019-Jan-15 03:59N 51°49' E 004°03'0 0.0
2019-Jan-15 03:29N 51°49' E 004°03'0 0.0
2019-Jan-15 02:59N 51°49' E 004°03'0 0.0
2019-Jan-15 02:29N 51°49' E 004°03'0 0.0
2019-Jan-15 01:59N 51°49' E 004°03'0 0.0
2019-Jan-15 01:29N 51°49' E 004°03'0 0.0
2019-Jan-15 00:59N 51°49' E 004°03'0 0.0
2019-Jan-15 00:29N 51°49' E 004°03'0 0.0
2019-Jan-14 23:59N 51°49' E 004°03'0 0.0
2019-Jan-14 23:29N 51°49' E 004°03'0 0.0
2019-Jan-14 22:59N 51°49' E 004°03'0 0.0
2019-Jan-14 22:29N 51°49' E 004°03'0 0.0
2019-Jan-14 21:59N 51°49' E 004°03'0 0.0
2019-Jan-14 21:29N 51°49' E 004°03'0 0.0
2019-Jan-14 20:56N 51°49' E 004°03'0 0.0
2019-Jan-14 20:29N 51°49' E 004°03'0 0.0
2019-Jan-14 19:59N 51°49' E 004°03'0 0.0
2019-Jan-14 19:29N 51°49' E 004°03'0 0.0
2019-Jan-14 18:59N 51°49' E 004°03'0 0.0
2019-Jan-14 18:29N 51°49' E 004°03'0 0.0
2019-Jan-14 17:59N 51°49' E 004°03'0 0.0
2019-Jan-14 17:29N 51°49' E 004°03'0 0.0
2019-Jan-14 16:59N 51°49' E 004°03'0 0.0
2019-Jan-14 16:29N 51°49' E 004°03'0 0.0
2019-Jan-14 15:59N 51°49' E 004°03'0 0.0
2019-Jan-14 15:29N 51°49' E 004°03'0 0.0
2019-Jan-14 14:59N 51°49' E 004°03'0 0.0
2019-Jan-14 14:29N 51°49' E 004°03'0 0.0
2019-Jan-14 13:56N 51°49' E 004°03'0 0.0
2019-Jan-14 13:29N 51°49' E 004°03'0 0.0
2019-Jan-14 12:59N 51°49' E 004°03'0 0.0
2019-Jan-14 12:29N 51°49' E 004°03'0 0.0
2019-Jan-14 11:59N 51°49' E 004°03'0 0.0
2019-Jan-14 11:29N 51°49' E 004°03'0 0.0
2019-Jan-14 10:59N 51°49' E 004°03'0 0.0
2019-Jan-14 10:29N 51°49' E 004°03'0 0.0
2019-Jan-14 09:59N 51°49' E 004°03'0 0.0
2019-Jan-14 09:29N 51°49' E 004°03'0 0.0
2019-Jan-14 08:59N 51°49' E 004°03'0 0.0
2019-Jan-14 08:29N 51°49' E 004°03'0 0.0
2019-Jan-14 07:59N 51°49' E 004°03'0 0.0
2019-Jan-14 07:29N 51°49' E 004°03'0 0.0
2019-Jan-14 06:59N 51°49' E 004°03'0 0.0
2019-Jan-14 06:29N 51°49' E 004°03'0 0.0
2019-Jan-14 05:59N 51°49' E 004°03'0 0.0
2019-Jan-14 05:29N 51°49' E 004°03'0 0.0
2019-Jan-14 04:59N 51°49' E 004°03'0 0.0
2019-Jan-14 04:29N 51°49' E 004°03'0 0.0
2019-Jan-14 03:59N 51°49' E 004°03'0 0.0
2019-Jan-14 03:29N 51°49' E 004°03'0 0.0
2019-Jan-14 03:00N 51°49' E 004°03'0 0.0
2019-Jan-14 02:30N 51°49' E 004°03'0 0.0
2019-Jan-14 02:00N 51°49' E 004°03'0 0.0
2019-Jan-14 01:30N 51°49' E 004°03'0 0.0
2019-Jan-14 01:00N 51°49' E 004°03'0 0.0
2019-Jan-14 00:30N 51°49' E 004°03'0 0.0
2019-Jan-14 00:00N 51°49' E 004°03'0 0.0
2019-Jan-13 23:30N 51°49' E 004°03'0 0.0
2019-Jan-13 23:00N 51°49' E 004°03'0 0.0
2019-Jan-13 22:30N 51°49' E 004°03'0 0.0
2019-Jan-13 22:00N 51°49' E 004°03'0 0.0
2019-Jan-13 21:30N 51°49' E 004°03'0 0.0
2019-Jan-13 21:00N 51°49' E 004°03'0 0.0
2019-Jan-13 20:30N 51°49' E 004°03'0 0.0
2019-Jan-13 20:00N 51°49' E 004°03'0 0.0
2019-Jan-13 19:30N 51°49' E 004°03'0 0.0
2019-Jan-13 18:57N 51°49' E 004°03'0 0.0
2019-Jan-13 18:30N 51°49' E 004°03'0 0.0
2019-Jan-13 18:00N 51°49' E 004°03'0 0.0
2019-Jan-13 17:30N 51°49' E 004°03'0 0.0
2019-Jan-13 17:00N 51°49' E 004°03'0 0.0
2019-Jan-13 16:30N 51°49' E 004°03'0 0.0
2019-Jan-13 16:00N 51°49' E 004°03'0 0.0
2019-Jan-13 15:30N 51°49' E 004°03'0 0.0
2019-Jan-13 15:00N 51°49' E 004°03'0 0.0
2019-Jan-13 14:30N 51°49' E 004°03'0 0.0
2019-Jan-13 14:00N 51°49' E 004°03'0 0.0
2019-Jan-13 13:30N 51°49' E 004°03'0 0.0
2019-Jan-13 13:00N 51°49' E 004°03'0 0.0
2019-Jan-13 12:30N 51°49' E 004°03'0 0.0
2019-Jan-13 12:00N 51°49' E 004°03'0 0.0
2019-Jan-13 11:30N 51°49' E 004°03'0 0.0
2019-Jan-13 11:00N 51°49' E 004°03'0 0.0
2019-Jan-13 10:30N 51°49' E 004°03'0 0.0
2019-Jan-13 10:00N 51°49' E 004°03'0 0.0
2019-Jan-13 09:30N 51°49' E 004°03'0 0.0
2019-Jan-13 09:00N 51°49' E 004°03'0 0.0
2019-Jan-13 08:30N 51°49' E 004°03'0 0.0
2019-Jan-13 07:59N 51°49' E 004°03'0 0.0
2019-Jan-13 07:29N 51°49' E 004°03'0 0.0
2019-Jan-13 06:59N 51°49' E 004°03'0 0.0
2019-Jan-13 06:29N 51°49' E 004°03'0 0.0
2019-Jan-13 05:59N 51°49' E 004°03'0 0.0
2019-Jan-13 05:29N 51°49' E 004°03'0 0.0
2019-Jan-13 04:59N 51°49' E 004°03'0 0.0
2019-Jan-13 04:29N 51°49' E 004°03'0 0.0
2019-Jan-13 03:59N 51°49' E 004°03'0 0.0
2019-Jan-13 03:29N 51°49' E 004°03'0 0.0
2019-Jan-13 02:59N 51°49' E 004°03'0 0.0
2019-Jan-13 02:29N 51°49' E 004°03'0 0.0
2019-Jan-13 01:59N 51°49' E 004°03'0 0.0
2019-Jan-13 01:29N 51°49' E 004°03'0 0.0
2019-Jan-13 00:59N 51°49' E 004°03'0 0.0
2019-Jan-13 00:29N 51°49' E 004°03'0 0.0
2019-Jan-12 23:56N 51°49' E 004°03'0 0.0
2019-Jan-12 23:29N 51°49' E 004°03'0 0.0
2019-Jan-12 22:59N 51°49' E 004°03'0 0.0
2019-Jan-12 22:29N 51°49' E 004°03'0 0.0
2019-Jan-12 21:59N 51°49' E 004°03'  

Dump ship's entire track history